createdAt,value
2022-09-14T00:03:26.357Z,46.22
2022-09-14T00:08:20.040Z,45.76
2022-09-14T00:13:15.161Z,45.89
2022-09-14T00:18:15.959Z,45.77
2022-09-14T00:23:09.146Z,45.45
2022-09-14T00:28:03.238Z,45.73
2022-09-14T00:32:57.252Z,46.00
2022-09-14T00:37:51.831Z,45.88
2022-09-14T00:42:46.308Z,45.63
2022-09-14T00:47:39.801Z,45.77
2022-09-14T00:52:36.448Z,45.76
2022-09-14T00:57:35.577Z,45.73
2022-09-14T01:02:29.542Z,45.95
2022-09-14T01:07:34.752Z,45.87
2022-09-14T01:12:40.480Z,45.67
2022-09-14T01:17:51.424Z,45.78
2022-09-14T01:23:06.260Z,45.64
2022-09-14T01:28:07.244Z,45.82
2022-09-14T01:33:13.751Z,45.77
2022-09-14T01:38:23.751Z,45.56
2022-09-14T01:43:41.848Z,45.75
2022-09-14T01:48:47.232Z,45.46
2022-09-14T01:53:49.384Z,45.81
2022-09-14T01:58:51.092Z,45.79
2022-09-14T02:03:50.752Z,45.62
2022-09-14T02:08:45.179Z,45.53
2022-09-14T02:13:39.429Z,45.88
2022-09-14T02:18:33.587Z,45.55
2022-09-14T02:23:27.065Z,45.57
2022-09-14T02:28:24.281Z,45.53
2022-09-14T02:33:41.394Z,45.52
2022-09-14T02:38:56.819Z,45.67
2022-09-14T02:43:54.508Z,45.89
2022-09-14T02:49:18.741Z,45.40
2022-09-14T02:54:18.608Z,45.89
2022-09-14T02:59:12.341Z,45.73
2022-09-14T03:04:05.566Z,45.89
2022-09-14T03:08:59.570Z,45.79
2022-09-14T03:13:53.393Z,46.01
2022-09-14T03:18:48.011Z,45.67
2022-09-14T03:23:43.294Z,45.81
2022-09-14T03:28:37.076Z,46.09
2022-09-14T03:33:30.159Z,45.77
2022-09-14T03:38:25.072Z,45.98
2022-09-14T03:43:22.488Z,46.15
2022-09-14T03:48:16.602Z,45.87
2022-09-14T03:53:10.839Z,46.23
2022-09-14T03:58:04.505Z,46.12
2022-09-14T04:03:01.218Z,46.14
2022-09-14T04:07:54.685Z,46.16
2022-09-14T04:12:48.405Z,45.93
2022-09-14T04:17:46.498Z,46.30
2022-09-14T04:22:39.328Z,46.09
2022-09-14T04:27:32.773Z,46.47
2022-09-14T04:32:29.650Z,45.73
2022-09-14T04:37:30.964Z,45.45
2022-09-14T04:42:25.071Z,45.45
2022-09-14T04:47:18.335Z,45.53
2022-09-14T04:52:12.377Z,45.55
2022-09-14T04:57:06.424Z,45.15
2022-09-14T05:01:59.180Z,45.44
2022-09-14T05:06:53.369Z,45.20
2022-09-14T05:11:47.094Z,44.73
2022-09-14T05:16:41.002Z,45.05
2022-09-14T05:21:37.545Z,44.87
2022-09-14T05:26:33.295Z,44.90
2022-09-14T05:31:28.516Z,44.68
2022-09-14T05:36:23.032Z,44.97
2022-09-14T05:41:16.603Z,44.88
2022-09-14T05:46:15.513Z,45.39
2022-09-14T05:51:12.852Z,45.93
2022-09-14T05:56:18.552Z,45.88
2022-09-14T06:01:21.074Z,45.93
2022-09-14T06:06:17.350Z,46.32
2022-09-14T06:11:13.029Z,46.06
2022-09-14T06:16:10.293Z,45.90
2022-09-14T06:21:05.300Z,46.37
2022-09-14T06:26:04.392Z,46.41
2022-09-14T06:30:58.617Z,46.18
2022-09-14T06:36:02.675Z,45.92
2022-09-14T06:40:59.270Z,45.84
2022-09-14T06:46:06.739Z,46.26
2022-09-14T06:51:00.811Z,46.43
2022-09-14T06:55:54.314Z,46.62
2022-09-14T07:00:48.387Z,46.22
2022-09-14T07:05:41.812Z,46.48
2022-09-14T07:10:36.042Z,46.70
2022-09-14T07:15:29.879Z,46.45
2022-09-14T07:20:27.317Z,46.49
2022-09-14T07:25:21.115Z,46.20
2022-09-14T07:30:14.520Z,46.17
2022-09-14T07:35:10.211Z,46.25
2022-09-14T07:40:04.148Z,46.32
2022-09-14T07:44:58.902Z,46.51
2022-09-14T07:49:53.760Z,46.43
2022-09-14T07:54:47.824Z,46.44
2022-09-14T07:59:41.896Z,45.80
2022-09-14T08:04:36.760Z,45.59
2022-09-14T08:09:30.936Z,45.64
2022-09-14T08:14:24.179Z,45.37
2022-09-14T08:19:19.123Z,45.31
2022-09-14T08:24:17.570Z,45.57
2022-09-14T08:29:10.659Z,45.94
2022-09-14T08:34:04.564Z,45.63
2022-09-14T08:38:57.875Z,45.76
2022-09-14T08:43:51.923Z,45.83
2022-09-14T08:48:49.000Z,45.95
2022-09-14T08:53:43.608Z,45.74
2022-09-14T08:58:47.602Z,45.62
2022-09-14T09:04:02.363Z,46.07
2022-09-14T09:09:09.719Z,45.99
2022-09-14T09:14:14.070Z,46.37
2022-09-14T09:19:17.080Z,48.37
2022-09-14T09:24:34.126Z,47.95
2022-09-14T09:29:30.223Z,48.12
2022-09-14T09:34:37.271Z,49.58
2022-09-14T09:39:40.500Z,49.06
2022-09-14T09:45:04.119Z,51.18
2022-09-14T09:50:02.550Z,50.66
2022-09-14T09:54:57.737Z,50.93
2022-09-14T09:59:55.091Z,50.97
2022-09-14T10:05:04.774Z,49.66
2022-09-14T10:10:12.252Z,49.88
2022-09-14T10:15:32.651Z,48.67
2022-09-14T10:20:27.962Z,48.87
2022-09-14T10:25:20.399Z,48.49
2022-09-14T10:30:15.795Z,49.04
2022-09-14T10:35:17.945Z,49.10
2022-09-14T10:40:18.763Z,48.19
2022-09-14T10:45:19.227Z,49.33
2022-09-14T10:50:36.884Z,48.79
2022-09-14T10:55:34.515Z,49.15
2022-09-14T11:00:32.485Z,48.56
2022-09-14T11:05:31.103Z,48.87
2022-09-14T11:10:34.426Z,48.52
2022-09-14T11:15:47.242Z,47.95
2022-09-14T11:21:14.487Z,48.05
2022-09-14T11:26:17.747Z,47.55
2022-09-14T11:32:04.449Z,47.44
2022-09-14T11:37:30.552Z,46.77
2022-09-14T11:42:46.412Z,46.71
2022-09-14T11:48:41.737Z,46.58
2022-09-14T11:53:35.344Z,46.42
2022-09-14T11:58:49.122Z,46.18
2022-09-14T12:04:23.444Z,46.35
2022-09-14T12:09:24.948Z,46.60
2022-09-14T12:14:31.078Z,46.73
2022-09-14T12:19:28.018Z,46.82
2022-09-14T12:24:24.404Z,46.97
2022-09-14T12:29:34.910Z,47.00
2022-09-14T12:34:33.777Z,47.06
2022-09-14T12:39:37.400Z,46.83
2022-09-14T12:44:56.564Z,46.87
2022-09-14T12:50:09.479Z,46.47
2022-09-14T12:55:33.546Z,46.68
2022-09-14T13:01:07.623Z,46.30
2022-09-14T13:06:03.263Z,46.35
2022-09-14T13:11:24.131Z,45.81
2022-09-14T13:16:44.539Z,46.25
2022-09-14T13:21:48.888Z,46.33
2022-09-14T13:26:44.380Z,45.90
2022-09-14T13:31:39.996Z,45.45
2022-09-14T13:37:14.963Z,45.07
2022-09-14T13:42:09.594Z,44.49
2022-09-14T13:47:06.004Z,44.69
2022-09-14T13:52:19.765Z,44.31
2022-09-14T13:57:22.160Z,44.86
2022-09-14T14:02:16.558Z,44.77
2022-09-14T14:07:22.909Z,44.29
2022-09-14T14:12:32.396Z,44.45
2022-09-14T14:17:37.112Z,44.51
2022-09-14T14:22:33.717Z,44.07
2022-09-14T14:27:44.410Z,43.87
2022-09-14T14:32:44.979Z,44.15
2022-09-14T14:37:38.945Z,43.74
2022-09-14T14:42:33.042Z,43.95
2022-09-14T14:47:28.503Z,43.90
2022-09-14T14:52:22.515Z,44.01
2022-09-14T14:57:16.633Z,44.16
2022-09-14T15:02:10.517Z,43.90
2022-09-14T15:07:04.790Z,43.94
2022-09-14T15:11:57.493Z,44.40
2022-09-14T15:16:56.424Z,44.19
2022-09-14T15:21:50.701Z,44.52
2022-09-14T15:26:44.963Z,44.39
2022-09-14T15:31:38.403Z,44.69
2022-09-14T15:36:48.259Z,44.34
2022-09-14T15:41:42.080Z,44.44
2022-09-14T15:46:35.624Z,44.46
2022-09-14T15:51:29.806Z,44.17
2022-09-14T15:56:23.862Z,44.43
2022-09-14T16:01:19.042Z,44.13
2022-09-14T16:06:16.081Z,44.46
2022-09-14T16:11:09.567Z,44.13
2022-09-14T16:16:16.163Z,44.23
2022-09-14T16:21:15.165Z,44.28
2022-09-14T16:26:11.163Z,44.70
2022-09-14T16:31:24.747Z,44.57
2022-09-14T16:36:20.515Z,44.38
2022-09-14T16:41:16.012Z,44.40
2022-09-14T16:46:29.391Z,44.46
2022-09-14T16:51:25.886Z,44.65
2022-09-14T16:56:21.901Z,44.35
2022-09-14T17:01:39.864Z,44.62
2022-09-14T17:06:33.553Z,44.55
2022-09-14T17:11:29.905Z,44.73
2022-09-14T17:16:24.564Z,44.52
2022-09-14T17:21:39.315Z,44.59
2022-09-14T17:26:32.940Z,44.56
2022-09-14T17:31:29.651Z,44.44
2022-09-14T17:36:23.787Z,44.26
2022-09-14T17:41:19.235Z,44.65
2022-09-14T17:46:15.170Z,44.55
2022-09-14T17:51:15.257Z,44.71
2022-09-14T17:56:11.061Z,44.59
2022-09-14T18:01:22.421Z,44.48
2022-09-14T18:06:16.215Z,44.81
2022-09-14T18:11:15.214Z,44.79
2022-09-14T18:16:08.468Z,44.87
2022-09-14T18:21:02.383Z,44.66
2022-09-14T18:25:56.020Z,44.73
2022-09-14T18:30:49.113Z,44.74
2022-09-14T18:35:43.480Z,44.81
2022-09-14T18:40:38.884Z,44.68
2022-09-14T18:45:34.654Z,45.08
2022-09-14T18:50:33.141Z,44.90
2022-09-14T18:55:26.185Z,45.43
2022-09-14T19:00:20.348Z,46.57
2022-09-14T19:05:14.756Z,47.45
2022-09-14T19:10:11.786Z,48.56
2022-09-14T19:15:06.346Z,51.02
2022-09-14T19:19:59.835Z,49.31
2022-09-14T19:24:53.771Z,48.85
2022-09-14T19:29:47.696Z,47.02
2022-09-14T19:34:41.240Z,46.60
2022-09-14T19:39:34.642Z,46.49
2022-09-14T19:44:29.261Z,46.27
2022-09-14T19:49:25.404Z,45.73
2022-09-14T19:54:20.413Z,45.51
2022-09-14T19:59:13.082Z,46.03
2022-09-14T20:04:09.526Z,46.26
2022-09-14T20:09:14.236Z,46.06
2022-09-14T20:14:10.806Z,46.46
2022-09-14T20:19:08.793Z,46.06
2022-09-14T20:24:15.705Z,46.36
2022-09-14T20:29:10.361Z,46.23
2022-09-14T20:34:05.589Z,45.90
2022-09-14T20:39:00.406Z,45.95
2022-09-14T20:43:55.420Z,46.18
2022-09-14T20:48:50.836Z,46.01
2022-09-14T20:53:44.945Z,45.89
2022-09-14T20:58:38.680Z,45.77
2022-09-14T21:03:32.687Z,45.57
2022-09-14T21:08:26.176Z,45.87
2022-09-14T21:13:20.122Z,45.98
2022-09-14T21:18:20.753Z,46.28
2022-09-14T21:23:14.155Z,46.21
2022-09-14T21:28:08.019Z,46.36
2022-09-14T21:33:02.483Z,46.07
2022-09-14T21:37:56.573Z,46.28
2022-09-14T21:42:50.900Z,46.06
2022-09-14T21:47:43.915Z,46.52
2022-09-14T21:52:41.717Z,46.51
2022-09-14T21:57:35.098Z,46.12
2022-09-14T22:02:28.609Z,46.42
2022-09-14T22:07:22.805Z,46.57
2022-09-14T22:12:22.295Z,46.57
2022-09-14T22:17:15.766Z,46.61
2022-09-14T22:22:09.268Z,46.63
2022-09-14T22:27:03.264Z,46.50
2022-09-14T22:31:57.331Z,46.35
2022-09-14T22:36:54.905Z,46.47
2022-09-14T22:41:49.176Z,46.29
2022-09-14T22:46:43.518Z,46.55
2022-09-14T22:51:37.006Z,46.49
2022-09-14T22:56:36.210Z,46.41
2022-09-14T23:01:32.931Z,46.50
2022-09-14T23:06:34.062Z,46.29
2022-09-14T23:11:27.260Z,46.39
2022-09-14T23:16:23.913Z,46.39
2022-09-14T23:21:17.977Z,46.53
2022-09-14T23:26:12.466Z,46.57
2022-09-14T23:31:07.196Z,46.29
2022-09-14T23:36:00.425Z,46.54
2022-09-14T23:40:54.015Z,46.45
2022-09-14T23:45:47.865Z,46.57
2022-09-14T23:50:41.780Z,46.42
2022-09-14T23:55:35.333Z,46.28
